sensor_id;sensor_type;location;lat;lon;timestamp;P1;durP1;ratioP1;P2;durP2;ratioP2
50976;SDS011;36992;48.200;12.418;2023-03-01T00:01:05;9.55;;;5.30;;
50976;SDS011;36992;48.200;12.418;2023-03-01T00:03:33;8.38;;;4.82;;
50976;SDS011;36992;48.200;12.418;2023-03-01T00:06:02;7.18;;;3.60;;
50976;SDS011;36992;48.200;12.418;2023-03-01T00:08:29;7.97;;;4.57;;
50976;SDS011;36992;48.200;12.418;2023-03-01T00:11:01;7.95;;;3.97;;
50976;SDS011;36992;48.200;12.418;2023-03-01T00:13:29;7.47;;;4.20;;
50976;SDS011;36992;48.200;12.418;2023-03-01T00:15:56;10.05;;;4.47;;
50976;SDS011;36992;48.200;12.418;2023-03-01T00:18:23;8.70;;;4.22;;
50976;SDS011;36992;48.200;12.418;2023-03-01T00:20:50;8.25;;;4.63;;
50976;SDS011;36992;48.200;12.418;2023-03-01T00:23:18;7.95;;;4.53;;
50976;SDS011;36992;48.200;12.418;2023-03-01T00:25:45;8.18;;;4.65;;
50976;SDS011;36992;48.200;12.418;2023-03-01T00:28:12;6.10;;;3.65;;
50976;SDS011;36992;48.200;12.418;2023-03-01T00:30:38;8.60;;;4.90;;
50976;SDS011;36992;48.200;12.418;2023-03-01T00:33:05;6.55;;;3.85;;
50976;SDS011;36992;48.200;12.418;2023-03-01T00:35:32;8.23;;;4.80;;
50976;SDS011;36992;48.200;12.418;2023-03-01T00:37:59;9.30;;;5.10;;
50976;SDS011;36992;48.200;12.418;2023-03-01T00:40:28;10.88;;;5.60;;
50976;SDS011;36992;48.200;12.418;2023-03-01T00:42:55;8.55;;;4.32;;
50976;SDS011;36992;48.200;12.418;2023-03-01T00:45:23;11.13;;;5.30;;
50976;SDS011;36992;48.200;12.418;2023-03-01T00:47:50;7.47;;;4.93;;
50976;SDS011;36992;48.200;12.418;2023-03-01T00:50:16;9.52;;;5.25;;
50976;SDS011;36992;48.200;12.418;2023-03-01T00:52:44;9.90;;;5.38;;
50976;SDS011;36992;48.200;12.418;2023-03-01T00:55:11;8.93;;;4.68;;
50976;SDS011;36992;48.200;12.418;2023-03-01T00:57:39;10.40;;;4.70;;
50976;SDS011;36992;48.200;12.418;2023-03-01T01:00:06;7.82;;;4.20;;
50976;SDS011;36992;48.200;12.418;2023-03-01T01:02:34;12.05;;;5.22;;
50976;SDS011;36992;48.200;12.418;2023-03-01T01:05:01;8.68;;;4.30;;
50976;SDS011;36992;48.200;12.418;2023-03-01T01:07:28;8.85;;;4.30;;
50976;SDS011;36992;48.200;12.418;2023-03-01T01:09:55;7.53;;;4.65;;
50976;SDS011;36992;48.200;12.418;2023-03-01T01:12:21;8.88;;;4.53;;
50976;SDS011;36992;48.200;12.418;2023-03-01T01:14:49;7.45;;;4.22;;
50976;SDS011;36992;48.200;12.418;2023-03-01T01:17:16;7.82;;;4.03;;
50976;SDS011;36992;48.200;12.418;2023-03-01T01:19:42;10.35;;;5.50;;
50976;SDS011;36992;48.200;12.418;2023-03-01T01:22:09;9.10;;;5.47;;
50976;SDS011;36992;48.200;12.418;2023-03-01T01:24:35;7.50;;;4.38;;
50976;SDS011;36992;48.200;12.418;2023-03-01T01:27:02;8.50;;;3.78;;
50976;SDS011;36992;48.200;12.418;2023-03-01T01:29:28;6.22;;;4.13;;
50976;SDS011;36992;48.200;12.418;2023-03-01T01:31:56;9.63;;;4.75;;
50976;SDS011;36992;48.200;12.418;2023-03-01T01:34:23;9.48;;;5.40;;
50976;SDS011;36992;48.200;12.418;2023-03-01T01:36:50;9.02;;;5.18;;
50976;SDS011;36992;48.200;12.418;2023-03-01T01:39:18;7.90;;;4.75;;
50976;SDS011;36992;48.200;12.418;2023-03-01T01:41:45;9.50;;;5.18;;
50976;SDS011;36992;48.200;12.418;2023-03-01T01:44:14;7.93;;;4.72;;
50976;SDS011;36992;48.200;12.418;2023-03-01T01:46:44;6.03;;;4.03;;
50976;SDS011;36992;48.200;12.418;2023-03-01T01:49:26;10.15;;;4.70;;
50976;SDS011;36992;48.200;12.418;2023-03-01T01:51:59;8.55;;;4.10;;
50976;SDS011;36992;48.200;12.418;2023-03-01T01:54:32;9.43;;;4.45;;
50976;SDS011;36992;48.200;12.418;2023-03-01T01:57:07;9.18;;;4.55;;
50976;SDS011;36992;48.200;12.418;2023-03-01T01:59:37;7.93;;;4.07;;
50976;SDS011;36992;48.200;12.418;2023-03-01T02:02:05;7.57;;;4.05;;
50976;SDS011;36992;48.200;12.418;2023-03-01T02:04:33;6.28;;;3.15;;
50976;SDS011;36992;48.200;12.418;2023-03-01T02:07:01;7.50;;;3.92;;
50976;SDS011;36992;48.200;12.418;2023-03-01T02:09:31;7.40;;;3.60;;
50976;SDS011;36992;48.200;12.418;2023-03-01T02:11:59;6.00;;;3.45;;
50976;SDS011;36992;48.200;12.418;2023-03-01T02:14:26;6.38;;;2.60;;
50976;SDS011;36992;48.200;12.418;2023-03-01T02:16:53;6.55;;;3.13;;
50976;SDS011;36992;48.200;12.418;2023-03-01T02:19:22;5.63;;;2.60;;
50976;SDS011;36992;48.200;12.418;2023-03-01T02:22:00;6.13;;;3.22;;
50976;SDS011;36992;48.200;12.418;2023-03-01T02:24:35;7.30;;;3.45;;
50976;SDS011;36992;48.200;12.418;2023-03-01T02:27:08;7.63;;;2.90;;
50976;SDS011;36992;48.200;12.418;2023-03-01T02:29:37;6.15;;;2.80;;
50976;SDS011;36992;48.200;12.418;2023-03-01T02:32:03;7.57;;;3.22;;
50976;SDS011;36992;48.200;12.418;2023-03-01T02:34:30;6.75;;;3.53;;
50976;SDS011;36992;48.200;12.418;2023-03-01T02:37:00;7.88;;;3.55;;
50976;SDS011;36992;48.200;12.418;2023-03-01T02:39:30;5.97;;;3.28;;
50976;SDS011;36992;48.200;12.418;2023-03-01T02:42:00;6.05;;;3.10;;
50976;SDS011;36992;48.200;12.418;2023-03-01T02:44:29;7.18;;;3.95;;
50976;SDS011;36992;48.200;12.418;2023-03-01T02:46:57;5.30;;;2.95;;
50976;SDS011;36992;48.200;12.418;2023-03-01T02:49:28;7.47;;;4.15;;
50976;SDS011;36992;48.200;12.418;2023-03-01T02:52:08;7.68;;;3.85;;
50976;SDS011;36992;48.200;12.418;2023-03-01T02:54:54;6.47;;;3.70;;
50976;SDS011;36992;48.200;12.418;2023-03-01T02:57:24;6.22;;;3.40;;
50976;SDS011;36992;48.200;12.418;2023-03-01T02:59:53;6.82;;;3.45;;
50976;SDS011;36992;48.200;12.418;2023-03-01T03:02:23;6.32;;;3.42;;
50976;SDS011;36992;48.200;12.418;2023-03-01T03:05:01;7.60;;;3.97;;
50976;SDS011;36992;48.200;12.418;2023-03-01T03:07:31;6.85;;;3.75;;
50976;SDS011;36992;48.200;12.418;2023-03-01T03:09:58;7.53;;;3.97;;
50976;SDS011;36992;48.200;12.418;2023-03-01T03:12:24;7.13;;;3.95;;
50976;SDS011;36992;48.200;12.418;2023-03-01T03:14:51;13.27;;;4.07;;
50976;SDS011;36992;48.200;12.418;2023-03-01T03:17:17;8.70;;;5.07;;
50976;SDS011;36992;48.200;12.418;2023-03-01T03:19:45;7.97;;;4.25;;
50976;SDS011;36992;48.200;12.418;2023-03-01T03:22:12;10.77;;;4.82;;
50976;SDS011;36992;48.200;12.418;2023-03-01T03:24:38;9.23;;;4.65;;
50976;SDS011;36992;48.200;12.418;2023-03-01T03:27:05;8.32;;;3.97;;
50976;SDS011;36992;48.200;12.418;2023-03-01T03:29:32;7.00;;;4.20;;
50976;SDS011;36992;48.200;12.418;2023-03-01T03:31:59;7.97;;;5.20;;
50976;SDS011;36992;48.200;12.418;2023-03-01T03:34:26;9.48;;;5.57;;
50976;SDS011;36992;48.200;12.418;2023-03-01T03:36:54;7.32;;;4.07;;
50976;SDS011;36992;48.200;12.418;2023-03-01T03:39:21;7.38;;;4.50;;
50976;SDS011;36992;48.200;12.418;2023-03-01T03:41:48;8.30;;;3.70;;
50976;SDS011;36992;48.200;12.418;2023-03-01T03:44:14;7.32;;;3.38;;
50976;SDS011;36992;48.200;12.418;2023-03-01T03:46:41;6.60;;;4.10;;
50976;SDS011;36992;48.200;12.418;2023-03-01T03:49:07;8.70;;;4.10;;
50976;SDS011;36992;48.200;12.418;2023-03-01T03:51:34;6.82;;;3.47;;
50976;SDS011;36992;48.200;12.418;2023-03-01T03:54:02;6.97;;;3.20;;
50976;SDS011;36992;48.200;12.418;2023-03-01T03:56:28;10.02;;;4.60;;
50976;SDS011;36992;48.200;12.418;2023-03-01T03:58:55;6.55;;;3.85;;
50976;SDS011;36992;48.200;12.418;2023-03-01T04:01:21;6.47;;;3.08;;
50976;SDS011;36992;48.200;12.418;2023-03-01T04:03:48;8.68;;;4.28;;
50976;SDS011;36992;48.200;12.418;2023-03-01T04:06:19;10.20;;;5.18;;
50976;SDS011;36992;48.200;12.418;2023-03-01T04:08:46;8.90;;;5.85;;
50976;SDS011;36992;48.200;12.418;2023-03-01T04:11:17;8.10;;;3.42;;
50976;SDS011;36992;48.200;12.418;2023-03-01T04:13:53;5.80;;;3.70;;
50976;SDS011;36992;48.200;12.418;2023-03-01T04:16:21;10.32;;;5.40;;
50976;SDS011;36992;48.200;12.418;2023-03-01T04:18:48;8.88;;;4.95;;
50976;SDS011;36992;48.200;12.418;2023-03-01T04:21:15;9.02;;;4.10;;
50976;SDS011;36992;48.200;12.418;2023-03-01T04:23:42;8.02;;;3.90;;
50976;SDS011;36992;48.200;12.418;2023-03-01T04:26:08;7.28;;;3.22;;
50976;SDS011;36992;48.200;12.418;2023-03-01T04:28:37;6.28;;;3.45;;
50976;SDS011;36992;48.200;12.418;2023-03-01T04:31:05;7.22;;;3.78;;
50976;SDS011;36992;48.200;12.418;2023-03-01T04:33:38;8.63;;;3.88;;
50976;SDS011;36992;48.200;12.418;2023-03-01T04:36:05;6.95;;;3.13;;
50976;SDS011;36992;48.200;12.418;2023-03-01T04:38:33;7.22;;;3.65;;
50976;SDS011;36992;48.200;12.418;2023-03-01T04:41:02;9.57;;;3.67;;
50976;SDS011;36992;48.200;12.418;2023-03-01T04:43:29;5.28;;;2.95;;
50976;SDS011;36992;48.200;12.418;2023-03-01T04:46:00;5.93;;;3.15;;
50976;SDS011;36992;48.200;12.418;2023-03-01T04:48:28;6.15;;;3.50;;
50976;SDS011;36992;48.200;12.418;2023-03-01T04:50:56;6.10;;;3.22;;
50976;SDS011;36992;48.200;12.418;2023-03-01T04:53:22;7.63;;;3.35;;
50976;SDS011;36992;48.200;12.418;2023-03-01T04:55:49;6.10;;;3.22;;
50976;SDS011;36992;48.200;12.418;2023-03-01T04:58:16;6.28;;;3.28;;
50976;SDS011;36992;48.200;12.418;2023-03-01T05:00:43;6.18;;;3.40;;
50976;SDS011;36992;48.200;12.418;2023-03-01T05:03:11;7.55;;;4.07;;
50976;SDS011;36992;48.200;12.418;2023-03-01T05:05:38;5.40;;;2.88;;
50976;SDS011;36992;48.200;12.418;2023-03-01T05:08:05;6.43;;;3.55;;
50976;SDS011;36992;48.200;12.418;2023-03-01T05:10:33;6.68;;;3.22;;
50976;SDS011;36992;48.200;12.418;2023-03-01T05:13:01;7.05;;;3.47;;
50976;SDS011;36992;48.200;12.418;2023-03-01T05:15:29;5.57;;;3.28;;
50976;SDS011;36992;48.200;12.418;2023-03-01T05:17:58;7.18;;;3.75;;
50976;SDS011;36992;48.200;12.418;2023-03-01T05:20:27;9.55;;;3.47;;
50976;SDS011;36992;48.200;12.418;2023-03-01T05:22:55;6.28;;;3.08;;
50976;SDS011;36992;48.200;12.418;2023-03-01T05:25:23;6.57;;;3.05;;
50976;SDS011;36992;48.200;12.418;2023-03-01T05:27:50;5.22;;;3.00;;
50976;SDS011;36992;48.200;12.418;2023-03-01T05:30:17;7.90;;;3.58;;
50976;SDS011;36992;48.200;12.418;2023-03-01T05:32:44;8.48;;;3.60;;
50976;SDS011;36992;48.200;12.418;2023-03-01T05:35:13;10.52;;;3.47;;
50976;SDS011;36992;48.200;12.418;2023-03-01T05:37:42;6.22;;;3.17;;
50976;SDS011;36992;48.200;12.418;2023-03-01T05:40:11;7.82;;;3.80;;
50976;SDS011;36992;48.200;12.418;2023-03-01T05:42:42;6.97;;;3.65;;
50976;SDS011;36992;48.200;12.418;2023-03-01T05:45:09;7.53;;;4.05;;
50976;SDS011;36992;48.200;12.418;2023-03-01T05:47:38;6.65;;;3.30;;
50976;SDS011;36992;48.200;12.418;2023-03-01T05:50:08;5.93;;;3.22;;
50976;SDS011;36992;48.200;12.418;2023-03-01T05:52:37;8.18;;;3.95;;
50976;SDS011;36992;48.200;12.418;2023-03-01T05:55:05;9.00;;;4.05;;
50976;SDS011;36992;48.200;12.418;2023-03-01T05:57:33;7.00;;;4.18;;
50976;SDS011;36992;48.200;12.418;2023-03-01T05:59:59;6.45;;;3.85;;
50976;SDS011;36992;48.200;12.418;2023-03-01T06:02:26;8.13;;;3.83;;
50976;SDS011;36992;48.200;12.418;2023-03-01T06:04:54;5.85;;;3.30;;
50976;SDS011;36992;48.200;12.418;2023-03-01T06:07:20;8.25;;;4.47;;
50976;SDS011;36992;48.200;12.418;2023-03-01T06:09:47;9.10;;;4.95;;
50976;SDS011;36992;48.200;12.418;2023-03-01T06:12:15;9.40;;;3.58;;
50976;SDS011;36992;48.200;12.418;2023-03-01T06:14:42;7.72;;;3.85;;
50976;SDS011;36992;48.200;12.418;2023-03-01T06:17:08;6.05;;;3.28;;
50976;SDS011;36992;48.200;12.418;2023-03-01T06:19:35;7.95;;;4.03;;
50976;SDS011;36992;48.200;12.418;2023-03-01T06:22:01;7.47;;;3.90;;
50976;SDS011;36992;48.200;12.418;2023-03-01T06:24:28;10.75;;;4.78;;
50976;SDS011;36992;48.200;12.418;2023-03-01T06:26:54;9.60;;;4.55;;
50976;SDS011;36992;48.200;12.418;2023-03-01T06:29:23;9.55;;;4.85;;
50976;SDS011;36992;48.200;12.418;2023-03-01T06:31:49;7.32;;;4.20;;
50976;SDS011;36992;48.200;12.418;2023-03-01T06:34:16;7.07;;;3.47;;
50976;SDS011;36992;48.200;12.418;2023-03-01T06:36:42;6.82;;;4.05;;
50976;SDS011;36992;48.200;12.418;2023-03-01T06:39:09;7.80;;;4.05;;
50976;SDS011;36992;48.200;12.418;2023-03-01T06:41:35;6.43;;;3.17;;
50976;SDS011;36992;48.200;12.418;2023-03-01T06:44:02;8.02;;;3.80;;
50976;SDS011;36992;48.200;12.418;2023-03-01T06:46:30;6.35;;;3.60;;
50976;SDS011;36992;48.200;12.418;2023-03-01T06:48:57;5.45;;;3.08;;
50976;SDS011;36992;48.200;12.418;2023-03-01T06:51:23;6.22;;;3.55;;
50976;SDS011;36992;48.200;12.418;2023-03-01T06:53:50;7.10;;;4.32;;
50976;SDS011;36992;48.200;12.418;2023-03-01T06:56:16;8.48;;;3.83;;
50976;SDS011;36992;48.200;12.418;2023-03-01T06:58:43;8.13;;;4.82;;
50976;SDS011;36992;48.200;12.418;2023-03-01T07:01:09;8.60;;;4.00;;
50976;SDS011;36992;48.200;12.418;2023-03-01T07:03:37;9.45;;;5.30;;
50976;SDS011;36992;48.200;12.418;2023-03-01T07:06:04;9.40;;;4.68;;
50976;SDS011;36992;48.200;12.418;2023-03-01T07:08:31;7.60;;;4.05;;
50976;SDS011;36992;48.200;12.418;2023-03-01T07:10:58;7.28;;;4.10;;
50976;SDS011;36992;48.200;12.418;2023-03-01T07:13:26;6.90;;;3.67;;
50976;SDS011;36992;48.200;12.418;2023-03-01T07:15:53;12.35;;;4.50;;
50976;SDS011;36992;48.200;12.418;2023-03-01T07:18:20;10.88;;;5.15;;
50976;SDS011;36992;48.200;12.418;2023-03-01T07:20:48;13.82;;;5.18;;
50976;SDS011;36992;48.200;12.418;2023-03-01T07:23:14;9.98;;;5.18;;
50976;SDS011;36992;48.200;12.418;2023-03-01T07:25:41;9.52;;;4.50;;
50976;SDS011;36992;48.200;12.418;2023-03-01T07:28:07;11.18;;;6.40;;
50976;SDS011;36992;48.200;12.418;2023-03-01T07:30:34;12.40;;;5.78;;
50976;SDS011;36992;48.200;12.418;2023-03-01T07:33:01;12.32;;;5.50;;
50976;SDS011;36992;48.200;12.418;2023-03-01T07:35:28;9.85;;;4.93;;
50976;SDS011;36992;48.200;12.418;2023-03-01T07:37:55;9.63;;;4.88;;
50976;SDS011;36992;48.200;12.418;2023-03-01T07:40:22;10.30;;;4.93;;
50976;SDS011;36992;48.200;12.418;2023-03-01T07:42:49;8.43;;;4.95;;
50976;SDS011;36992;48.200;12.418;2023-03-01T07:45:15;9.23;;;5.38;;
50976;SDS011;36992;48.200;12.418;2023-03-01T07:47:42;8.98;;;4.65;;
50976;SDS011;36992;48.200;12.418;2023-03-01T07:50:09;10.35;;;5.03;;
50976;SDS011;36992;48.200;12.418;2023-03-01T07:52:36;10.95;;;5.38;;
50976;SDS011;36992;48.200;12.418;2023-03-01T07:55:04;10.02;;;5.38;;
50976;SDS011;36992;48.200;12.418;2023-03-01T07:57:31;8.15;;;4.47;;
50976;SDS011;36992;48.200;12.418;2023-03-01T07:59:58;9.48;;;5.47;;
50976;SDS011;36992;48.200;12.418;2023-03-01T08:02:24;11.32;;;5.35;;
50976;SDS011;36992;48.200;12.418;2023-03-01T08:04:51;11.73;;;6.60;;
50976;SDS011;36992;48.200;12.418;2023-03-01T08:07:17;8.90;;;5.13;;
50976;SDS011;36992;48.200;12.418;2023-03-01T08:09:44;10.45;;;5.97;;
50976;SDS011;36992;48.200;12.418;2023-03-01T08:12:12;10.57;;;5.72;;
50976;SDS011;36992;48.200;12.418;2023-03-01T08:14:38;12.38;;;6.57;;
50976;SDS011;36992;48.200;12.418;2023-03-01T08:17:05;11.82;;;5.88;;
50976;SDS011;36992;48.200;12.418;2023-03-01T08:19:31;10.20;;;5.95;;
50976;SDS011;36992;48.200;12.418;2023-03-01T08:21:59;8.82;;;4.43;;
50976;SDS011;36992;48.200;12.418;2023-03-01T08:24:27;11.27;;;6.20;;
50976;SDS011;36992;48.200;12.418;2023-03-01T08:26:53;13.10;;;5.93;;
50976;SDS011;36992;48.200;12.418;2023-03-01T08:29:21;9.20;;;5.68;;
50976;SDS011;36992;48.200;12.418;2023-03-01T08:31:49;12.02;;;7.18;;
50976;SDS011;36992;48.200;12.418;2023-03-01T08:34:17;12.85;;;6.25;;
50976;SDS011;36992;48.200;12.418;2023-03-01T08:36:45;8.52;;;4.82;;
50976;SDS011;36992;48.200;12.418;2023-03-01T08:39:13;12.27;;;5.72;;
50976;SDS011;36992;48.200;12.418;2023-03-01T08:41:42;8.90;;;4.68;;
50976;SDS011;36992;48.200;12.418;2023-03-01T08:44:09;11.20;;;5.80;;
50976;SDS011;36992;48.200;12.418;2023-03-01T08:46:38;12.18;;;6.50;;
50976;SDS011;36992;48.200;12.418;2023-03-01T08:49:06;12.57;;;6.97;;
50976;SDS011;36992;48.200;12.418;2023-03-01T08:51:34;9.50;;;4.93;;
50976;SDS011;36992;48.200;12.418;2023-03-01T08:54:02;13.60;;;7.13;;
50976;SDS011;36992;48.200;12.418;2023-03-01T08:56:29;13.95;;;7.40;;
50976;SDS011;36992;48.200;12.418;2023-03-01T08:58:56;10.48;;;5.82;;
50976;SDS011;36992;48.200;12.418;2023-03-01T09:01:22;11.55;;;6.72;;
50976;SDS011;36992;48.200;12.418;2023-03-01T09:03:50;10.82;;;4.88;;
50976;SDS011;36992;48.200;12.418;2023-03-01T09:06:17;11.02;;;5.00;;
50976;SDS011;36992;48.200;12.418;2023-03-01T09:08:45;9.85;;;5.32;;
50976;SDS011;36992;48.200;12.418;2023-03-01T09:11:13;11.20;;;5.75;;
50976;SDS011;36992;48.200;12.418;2023-03-01T09:13:42;11.93;;;6.35;;
50976;SDS011;36992;48.200;12.418;2023-03-01T09:16:09;15.27;;;8.80;;
50976;SDS011;36992;48.200;12.418;2023-03-01T09:18:38;12.35;;;7.22;;
50976;SDS011;36992;48.200;12.418;2023-03-01T09:21:06;8.73;;;5.47;;
50976;SDS011;36992;48.200;12.418;2023-03-01T09:23:34;12.70;;;6.78;;
50976;SDS011;36992;48.200;12.418;2023-03-01T09:26:03;11.18;;;6.40;;
50976;SDS011;36992;48.200;12.418;2023-03-01T09:28:30;16.25;;;8.50;;
50976;SDS011;36992;48.200;12.418;2023-03-01T09:30:57;11.95;;;7.22;;
50976;SDS011;36992;48.200;12.418;2023-03-01T09:33:25;12.48;;;6.82;;
50976;SDS011;36992;48.200;12.418;2023-03-01T09:35:55;11.40;;;6.43;;
50976;SDS011;36992;48.200;12.418;2023-03-01T09:38:23;11.90;;;5.50;;
50976;SDS011;36992;48.200;12.418;2023-03-01T09:40:50;15.55;;;7.18;;
50976;SDS011;36992;48.200;12.418;2023-03-01T09:43:18;12.05;;;6.70;;
50976;SDS011;36992;48.200;12.418;2023-03-01T09:45:51;13.98;;;7.68;;
50976;SDS011;36992;48.200;12.418;2023-03-01T09:48:22;16.95;;;8.18;;
50976;SDS011;36992;48.200;12.418;2023-03-01T09:50:52;12.35;;;6.60;;
50976;SDS011;36992;48.200;12.418;2023-03-01T09:53:20;13.38;;;8.15;;
50976;SDS011;36992;48.200;12.418;2023-03-01T09:55:51;16.15;;;8.23;;
50976;SDS011;36992;48.200;12.418;2023-03-01T10:00:58;10.80;;;6.20;;
50976;SDS011;36992;48.200;12.418;2023-03-01T10:03:30;13.25;;;7.68;;
50976;SDS011;36992;48.200;12.418;2023-03-01T10:06:04;16.45;;;8.55;;
50976;SDS011;36992;48.200;12.418;2023-03-01T10:08:38;10.07;;;5.90;;
50976;SDS011;36992;48.200;12.418;2023-03-01T10:11:19;14.05;;;6.85;;
50976;SDS011;36992;48.200;12.418;2023-03-01T10:13:48;13.52;;;8.25;;
50976;SDS011;36992;48.200;12.418;2023-03-01T10:16:21;13.75;;;7.60;;
50976;SDS011;36992;48.200;12.418;2023-03-01T10:18:53;16.52;;;7.97;;
50976;SDS011;36992;48.200;12.418;2023-03-01T10:21:25;15.05;;;8.80;;
50976;SDS011;36992;48.200;12.418;2023-03-01T10:23:53;12.40;;;7.22;;
50976;SDS011;36992;48.200;12.418;2023-03-01T10:29:13;17.35;;;8.63;;
50976;SDS011;36992;48.200;12.418;2023-03-01T10:31:42;12.75;;;6.65;;
50976;SDS011;36992;48.200;12.418;2023-03-01T10:34:11;13.95;;;7.93;;
50976;SDS011;36992;48.200;12.418;2023-03-01T10:36:39;15.00;;;8.50;;
50976;SDS011;36992;48.200;12.418;2023-03-01T10:39:11;21.30;;;9.77;;
50976;SDS011;36992;48.200;12.418;2023-03-01T10:41:54;12.40;;;7.82;;
50976;SDS011;36992;48.200;12.418;2023-03-01T10:47:12;11.73;;;6.90;;
50976;SDS011;36992;48.200;12.418;2023-03-01T10:49:51;12.23;;;7.93;;
50976;SDS011;36992;48.200;12.418;2023-03-01T10:52:19;14.98;;;7.88;;
50976;SDS011;36992;48.200;12.418;2023-03-01T10:54:52;15.18;;;8.20;;
50976;SDS011;36992;48.200;12.418;2023-03-01T10:57:28;13.88;;;8.55;;
50976;SDS011;36992;48.200;12.418;2023-03-01T11:02:50;13.60;;;8.05;;
50976;SDS011;36992;48.200;12.418;2023-03-01T11:05:28;14.57;;;8.48;;
50976;SDS011;36992;48.200;12.418;2023-03-01T11:07:58;15.07;;;9.15;;
50976;SDS011;36992;48.200;12.418;2023-03-01T11:10:27;14.07;;;8.65;;
50976;SDS011;36992;48.200;12.418;2023-03-01T11:13:06;12.80;;;7.43;;
50976;SDS011;36992;48.200;12.418;2023-03-01T11:15:35;15.98;;;8.68;;
50976;SDS011;36992;48.200;12.418;2023-03-01T11:18:02;14.20;;;8.43;;
50976;SDS011;36992;48.200;12.418;2023-03-01T11:20:29;13.50;;;8.07;;
50976;SDS011;36992;48.200;12.418;2023-03-01T11:22:59;12.98;;;7.45;;
50976;SDS011;36992;48.200;12.418;2023-03-01T11:25:30;17.27;;;9.70;;
50976;SDS011;36992;48.200;12.418;2023-03-01T11:28:00;15.75;;;9.07;;
50976;SDS011;36992;48.200;12.418;2023-03-01T11:30:32;12.07;;;7.10;;
50976;SDS011;36992;48.200;12.418;2023-03-01T11:33:05;15.27;;;7.63;;
50976;SDS011;36992;48.200;12.418;2023-03-01T11:35:43;17.45;;;8.25;;
50976;SDS011;36992;48.200;12.418;2023-03-01T11:38:16;13.63;;;7.95;;
50976;SDS011;36992;48.200;12.418;2023-03-01T11:40:48;12.40;;;7.05;;
50976;SDS011;36992;48.200;12.418;2023-03-01T11:43:19;14.00;;;8.00;;
50976;SDS011;36992;48.200;12.418;2023-03-01T11:45:57;12.88;;;6.88;;
50976;SDS011;36992;48.200;12.418;2023-03-01T11:48:50;12.27;;;7.05;;
50976;SDS011;36992;48.200;12.418;2023-03-01T11:51:24;15.77;;;7.85;;
50976;SDS011;36992;48.200;12.418;2023-03-01T11:54:05;11.65;;;6.75;;
50976;SDS011;36992;48.200;12.418;2023-03-01T11:56:40;10.23;;;6.10;;
50976;SDS011;36992;48.200;12.418;2023-03-01T11:59:17;11.68;;;6.38;;
50976;SDS011;36992;48.200;12.418;2023-03-01T12:02:12;8.68;;;5.38;;
50976;SDS011;36992;48.200;12.418;2023-03-01T12:08:01;10.18;;;5.85;;
50976;SDS011;36992;48.200;12.418;2023-03-01T12:10:38;11.65;;;6.32;;
50976;SDS011;36992;48.200;12.418;2023-03-01T12:13:18;13.18;;;7.15;;
50976;SDS011;36992;48.200;12.418;2023-03-01T12:18:49;15.27;;;7.53;;
50976;SDS011;36992;48.200;12.418;2023-03-01T12:21:30;13.73;;;7.57;;
50976;SDS011;36992;48.200;12.418;2023-03-01T12:24:10;12.07;;;6.43;;
50976;SDS011;36992;48.200;12.418;2023-03-01T12:26:57;12.35;;;5.95;;
50976;SDS011;36992;48.200;12.418;2023-03-01T12:29:37;9.82;;;5.75;;
50976;SDS011;36992;48.200;12.418;2023-03-01T12:32:30;11.85;;;6.40;;
50976;SDS011;36992;48.200;12.418;2023-03-01T12:38:05;9.70;;;5.88;;
50976;SDS011;36992;48.200;12.418;2023-03-01T12:43:37;9.57;;;6.10;;
50976;SDS011;36992;48.200;12.418;2023-03-01T12:46:20;12.90;;;7.88;;
50976;SDS011;36992;48.200;12.418;2023-03-01T12:48:58;12.30;;;7.15;;
50976;SDS011;36992;48.200;12.418;2023-03-01T12:53:59;11.23;;;6.40;;
50976;SDS011;36992;48.200;12.418;2023-03-01T12:56:31;12.52;;;6.78;;
50976;SDS011;36992;48.200;12.418;2023-03-01T12:59:02;10.75;;;5.80;;
50976;SDS011;36992;48.200;12.418;2023-03-01T13:01:40;12.20;;;7.22;;
50976;SDS011;36992;48.200;12.418;2023-03-01T13:04:14;12.02;;;6.80;;
50976;SDS011;36992;48.200;12.418;2023-03-01T13:06:53;12.27;;;7.15;;
50976;SDS011;36992;48.200;12.418;2023-03-01T13:09:26;11.38;;;6.55;;
50976;SDS011;36992;48.200;12.418;2023-03-01T13:12:02;14.05;;;7.75;;
50976;SDS011;36992;48.200;12.418;2023-03-01T13:14:45;14.70;;;8.10;;
50976;SDS011;36992;48.200;12.418;2023-03-01T13:22:27;11.13;;;5.30;;
50976;SDS011;36992;48.200;12.418;2023-03-01T13:25:10;8.25;;;5.32;;
50976;SDS011;36992;48.200;12.418;2023-03-01T13:27:40;9.82;;;5.28;;
50976;SDS011;36992;48.200;12.418;2023-03-01T13:30:12;11.18;;;6.68;;
50976;SDS011;36992;48.200;12.418;2023-03-01T13:36:06;12.88;;;6.95;;
50976;SDS011;36992;48.200;12.418;2023-03-01T13:38:38;13.02;;;7.78;;
50976;SDS011;36992;48.200;12.418;2023-03-01T13:41:13;14.55;;;9.15;;
50976;SDS011;36992;48.200;12.418;2023-03-01T13:43:41;12.20;;;7.22;;
50976;SDS011;36992;48.200;12.418;2023-03-01T13:46:10;13.23;;;6.45;;
50976;SDS011;36992;48.200;12.418;2023-03-01T13:48:42;14.30;;;6.57;;
50976;SDS011;36992;48.200;12.418;2023-03-01T13:51:11;9.82;;;6.10;;
50976;SDS011;36992;48.200;12.418;2023-03-01T13:53:40;8.63;;;5.50;;
50976;SDS011;36992;48.200;12.418;2023-03-01T13:56:11;9.45;;;5.50;;
50976;SDS011;36992;48.200;12.418;2023-03-01T13:58:49;10.48;;;6.55;;
50976;SDS011;36992;48.200;12.418;2023-03-01T14:01:22;9.38;;;5.40;;
50976;SDS011;36992;48.200;12.418;2023-03-01T14:03:51;9.27;;;5.93;;
50976;SDS011;36992;48.200;12.418;2023-03-01T14:06:19;12.98;;;6.05;;
50976;SDS011;36992;48.200;12.418;2023-03-01T14:08:49;11.20;;;5.85;;
50976;SDS011;36992;48.200;12.418;2023-03-01T14:11:27;11.73;;;6.07;;
50976;SDS011;36992;48.200;12.418;2023-03-01T14:14:05;8.77;;;5.72;;
50976;SDS011;36992;48.200;12.418;2023-03-01T14:16:53;11.80;;;5.43;;
50976;SDS011;36992;48.200;12.418;2023-03-01T14:19:32;8.50;;;5.22;;
50976;SDS011;36992;48.200;12.418;2023-03-01T14:22:01;10.32;;;5.55;;
50976;SDS011;36992;48.200;12.418;2023-03-01T14:24:44;11.05;;;5.93;;
50976;SDS011;36992;48.200;12.418;2023-03-01T14:27:14;8.32;;;4.68;;
50976;SDS011;36992;48.200;12.418;2023-03-01T14:29:41;8.55;;;5.00;;
50976;SDS011;36992;48.200;12.418;2023-03-01T14:32:11;11.07;;;6.03;;
50976;SDS011;36992;48.200;12.418;2023-03-01T14:37:15;6.78;;;4.30;;
50976;SDS011;36992;48.200;12.418;2023-03-01T14:39:46;8.45;;;4.70;;
50976;SDS011;36992;48.200;12.418;2023-03-01T14:42:13;9.68;;;4.82;;
50976;SDS011;36992;48.200;12.418;2023-03-01T14:44:41;9.27;;;4.25;;
50976;SDS011;36992;48.200;12.418;2023-03-01T14:47:10;8.30;;;4.40;;
50976;SDS011;36992;48.200;12.418;2023-03-01T14:49:39;7.72;;;4.22;;
50976;SDS011;36992;48.200;12.418;2023-03-01T14:52:07;10.45;;;4.72;;
50976;SDS011;36992;48.200;12.418;2023-03-01T14:54:44;8.10;;;4.70;;
50976;SDS011;36992;48.200;12.418;2023-03-01T14:57:15;9.27;;;4.95;;
50976;SDS011;36992;48.200;12.418;2023-03-01T14:59:43;7.60;;;4.32;;
50976;SDS011;36992;48.200;12.418;2023-03-01T15:02:11;10.30;;;5.80;;
50976;SDS011;36992;48.200;12.418;2023-03-01T15:04:42;10.95;;;4.13;;
50976;SDS011;36992;48.200;12.418;2023-03-01T15:07:11;6.60;;;3.83;;
50976;SDS011;36992;48.200;12.418;2023-03-01T15:09:39;9.95;;;5.28;;
50976;SDS011;36992;48.200;12.418;2023-03-01T15:15:18;7.03;;;3.90;;
50976;SDS011;36992;48.200;12.418;2023-03-01T15:17:50;4.30;;;2.35;;
50976;SDS011;36992;48.200;12.418;2023-03-01T15:20:20;6.78;;;3.70;;
50976;SDS011;36992;48.200;12.418;2023-03-01T15:22:50;9.13;;;4.40;;